EFW6DG EGKK-LCLK
Flight info
| Callsign | EFW6DG |
|---|---|
| Flight time | N/A |
| Altitude | 35000 |
| Route | MIMFO Y312 DVR UL9 KONAN UL607 REMBA DCT RITAX DCT PITES DCT BANUX DCT VEKIR DCT LATLO DCT OBEDI DCT CEPRA DCT PODET DCT VABEK UL603 OLOTA DCT DISOR UL608 FSK/N0442F370 UN128 RIKSO UP14 ZAFLE DCT BENEM UN127 EXELA UM601 EVENO M601 BONEK |
| Aircraft | A320/M-SDE3FGHIRWY/LB1 |
Departure
| Time | 2026-04-18 11:25 |
|---|---|
| Airport | London Gatwick Airport (EGKK) |
Arrival
| Time | N/A |
|---|---|
| Airport | Larnaca International Airport (LCLK) |
| Time | Latitude | Longitude | Altitude | Speed | Heading |
|---|---|---|---|---|---|
| 2026-04-18 10:58 | 51.15446 | -0.16419 | 213 ft | 0 kts | 78° |
| 2026-04-18 11:15 | 51.15446 | -0.16420 | 215 ft | 1 kts | 78° |
| 2026-04-18 11:16 | 51.15441 | -0.16458 | 204 ft | 4 kts | 78° |
| 2026-04-18 11:16 | 51.15437 | -0.16497 | 204 ft | 4 kts | 110° |
| 2026-04-18 11:16 | 51.15448 | -0.16515 | 212 ft | 2 kts | 167° |
| 2026-04-18 11:16 | 51.15464 | -0.16521 | 212 ft | 0 kts | 167° |
| 2026-04-18 11:19 | 51.15462 | -0.16520 | 211 ft | 1 kts | 167° |
| 2026-04-18 11:19 | 51.15434 | -0.16516 | 214 ft | 7 kts | 186° |
| 2026-04-18 11:19 | 51.15379 | -0.16513 | 209 ft | 11 kts | 157° |
| 2026-04-18 11:19 | 51.15302 | -0.16519 | 210 ft | 13 kts | 247° |
| 2026-04-18 11:20 | 51.15280 | -0.16630 | 207 ft | 0 kts | 241° |
| 2026-04-18 11:20 | 51.15273 | -0.16644 | 213 ft | 0 kts | 221° |
| 2026-04-18 11:20 | 51.15261 | -0.16650 | 214 ft | 2 kts | 199° |
| 2026-04-18 11:21 | 51.15242 | -0.16649 | 212 ft | 0 kts | 177° |
| 2026-04-18 11:23 | 51.15236 | -0.16648 | 204 ft | 3 kts | 173° |
| 2026-04-18 11:24 | 51.15190 | -0.16635 | 203 ft | 10 kts | 169° |
| 2026-04-18 11:24 | 51.15133 | -0.16726 | 205 ft | 12 kts | 258° |
| 2026-04-18 11:24 | 51.15132 | -0.16736 | 203 ft | 1 kts | 255° |
| 2026-04-18 11:24 | 51.15128 | -0.16756 | 212 ft | 14 kts | 255° |
| 2026-04-18 11:25 | 51.15057 | -0.17279 | 215 ft | 81 kts | 258° |
| 2026-04-18 11:25 | 51.14895 | -0.18443 | 209 ft | 132 kts | 257° |
| 2026-04-18 11:25 | 51.14674 | -0.20064 | 375 ft | 156 kts | 262° |
| 2026-04-18 11:25 | 51.14446 | -0.21728 | 965 ft | 153 kts | 261° |
| 2026-04-18 11:26 | 51.14223 | -0.23389 | 1546 ft | 153 kts | 262° |
| 2026-04-18 11:26 | 51.14001 | -0.25054 | 1990 ft | 154 kts | 261° |
| 2026-04-18 11:26 | 51.13777 | -0.26725 | 2452 ft | 155 kts | 262° |
| 2026-04-18 11:26 | 51.13747 | -0.28422 | 2894 ft | 154 kts | 282° |
| 2026-04-18 11:27 | 51.14106 | -0.29990 | 3327 ft | 154 kts | 302° |
| 2026-04-18 11:27 | 51.14855 | -0.31322 | 3569 ft | 173 kts | 322° |
| 2026-04-18 11:27 | 51.16024 | -0.32148 | 3723 ft | 199 kts | 347° |
| 2026-04-18 11:27 | 51.17483 | -0.31987 | 3910 ft | 225 kts | 17° |
| 2026-04-18 11:28 | 51.18793 | -0.30548 | 4014 ft | 237 kts | 50° |
| 2026-04-18 11:28 | 51.19439 | -0.28170 | 4018 ft | 241 kts | 77° |
| 2026-04-18 11:28 | 51.19759 | -0.25507 | 4012 ft | 242 kts | 78° |
| 2026-04-18 11:28 | 51.20061 | -0.22904 | 4012 ft | 242 kts | 78° |
| 2026-04-18 11:29 | 51.20369 | -0.20264 | 4014 ft | 246 kts | 77° |
| 2026-04-18 11:29 | 51.20720 | -0.17432 | 4007 ft | 269 kts | 77° |
| 2026-04-18 11:29 | 51.21098 | -0.14491 | 4036 ft | 274 kts | 76° |
| 2026-04-18 11:29 | 51.21492 | -0.11477 | 4707 ft | 279 kts | 76° |
| 2026-04-18 11:30 | 51.21889 | -0.08449 | 4951 ft | 279 kts | 76° |
| 2026-04-18 11:30 | 51.22287 | -0.05423 | 5005 ft | 277 kts | 76° |
| 2026-04-18 11:30 | 51.22685 | -0.02408 | 5009 ft | 278 kts | 76° |
| 2026-04-18 11:30 | 51.23081 | 0.00614 | 4925 ft | 278 kts | 76° |
| 2026-04-18 11:31 | 51.23468 | 0.03589 | 4913 ft | 277 kts | 77° |
| 2026-04-18 11:31 | 51.23858 | 0.06602 | 4896 ft | 277 kts | 76° |
| 2026-04-18 11:31 | 51.24247 | 0.09622 | 4881 ft | 278 kts | 77° |
| 2026-04-18 11:31 | 51.24634 | 0.12642 | 4865 ft | 277 kts | 77° |
| 2026-04-18 11:32 | 51.25018 | 0.15657 | 4850 ft | 277 kts | 77° |
| 2026-04-18 11:32 | 51.25376 | 0.18686 | 4835 ft | 279 kts | 83° |
| 2026-04-18 11:32 | 51.25368 | 0.21778 | 4904 ft | 283 kts | 97° |
| 2026-04-18 11:32 | 51.25120 | 0.24859 | 5584 ft | 286 kts | 97° |
| 2026-04-18 11:33 | 51.24880 | 0.27993 | 5745 ft | 286 kts | 97° |
| 2026-04-18 11:33 | 51.24645 | 0.31144 | 5770 ft | 286 kts | 97° |
| 2026-04-18 11:33 | 51.24414 | 0.34283 | 5764 ft | 285 kts | 97° |
| 2026-04-18 11:33 | 51.24183 | 0.37418 | 5765 ft | 285 kts | 97° |
| 2026-04-18 11:34 | 51.23947 | 0.40560 | 5764 ft | 285 kts | 97° |
| 2026-04-18 11:34 | 51.23706 | 0.43703 | 5767 ft | 285 kts | 97° |
| 2026-04-18 11:34 | 51.23464 | 0.46838 | 5765 ft | 285 kts | 97° |
| 2026-04-18 11:34 | 51.23221 | 0.49974 | 5779 ft | 286 kts | 98° |
| 2026-04-18 11:35 | 51.22975 | 0.53159 | 6439 ft | 289 kts | 99° |
| 2026-04-18 11:35 | 51.22726 | 0.56361 | 7195 ft | 292 kts | 99° |
| 2026-04-18 11:35 | 51.22473 | 0.59592 | 7908 ft | 296 kts | 99° |
| 2026-04-18 11:35 | 51.22213 | 0.62872 | 8614 ft | 300 kts | 99° |
| 2026-04-18 11:36 | 51.21952 | 0.66196 | 9320 ft | 304 kts | 99° |
| 2026-04-18 11:36 | 51.21688 | 0.69568 | 10008 ft | 308 kts | 99° |
| 2026-04-18 11:36 | 51.21416 | 0.73021 | 10369 ft | 324 kts | 99° |
| 2026-04-18 11:36 | 51.21122 | 0.76709 | 10522 ft | 346 kts | 99° |
| 2026-04-18 11:37 | 51.20810 | 0.80606 | 10839 ft | 359 kts | 99° |
| 2026-04-18 11:37 | 51.20493 | 0.84541 | 11388 ft | 365 kts | 100° |
| 2026-04-18 11:37 | 51.20164 | 0.88652 | 11980 ft | 370 kts | 99° |
| 2026-04-18 11:37 | 51.19841 | 0.92672 | 12561 ft | 374 kts | 100° |
| 2026-04-18 11:38 | 51.19507 | 0.96807 | 13167 ft | 378 kts | 100° |
| 2026-04-18 11:38 | 51.19167 | 1.00988 | 13756 ft | 382 kts | 100° |
| 2026-04-18 11:38 | 51.18824 | 1.05205 | 14309 ft | 386 kts | 100° |
| 2026-04-18 11:38 | 51.18476 | 1.09461 | 14830 ft | 389 kts | 100° |
| 2026-04-18 11:39 | 51.18121 | 1.13751 | 15342 ft | 392 kts | 100° |
| 2026-04-18 11:39 | 51.17761 | 1.18076 | 15851 ft | 395 kts | 100° |
| 2026-04-18 11:39 | 51.17395 | 1.22430 | 16351 ft | 398 kts | 101° |
| 2026-04-18 11:39 | 51.17024 | 1.26822 | 16859 ft | 401 kts | 101° |
| 2026-04-18 11:40 | 51.16648 | 1.31243 | 17366 ft | 404 kts | 101° |
| 2026-04-18 11:40 | 51.16270 | 1.35701 | 17875 ft | 408 kts | 100° |
| 2026-04-18 11:40 | 51.15949 | 1.40207 | 18388 ft | 412 kts | 98° |
| 2026-04-18 11:40 | 51.15709 | 1.44770 | 18854 ft | 415 kts | 96° |
| 2026-04-18 11:41 | 51.15518 | 1.49361 | 19349 ft | 417 kts | 96° |
| 2026-04-18 11:41 | 51.15342 | 1.54000 | 19821 ft | 420 kts | 96° |
| 2026-04-18 11:41 | 51.15159 | 1.58658 | 20294 ft | 423 kts | 96° |
| 2026-04-18 11:41 | 51.14957 | 1.63351 | 20754 ft | 426 kts | 96° |
| 2026-04-18 11:42 | 51.14734 | 1.68077 | 21210 ft | 429 kts | 97° |
| 2026-04-18 11:42 | 51.14495 | 1.72830 | 21653 ft | 432 kts | 97° |
| 2026-04-18 11:42 | 51.14246 | 1.77615 | 22092 ft | 435 kts | 97° |
| 2026-04-18 11:42 | 51.13993 | 1.82424 | 22514 ft | 438 kts | 97° |
| 2026-04-18 11:43 | 51.13738 | 1.87275 | 22933 ft | 441 kts | 97° |
| 2026-04-18 11:43 | 51.13488 | 1.92091 | 23326 ft | 443 kts | 97° |
| 2026-04-18 11:43 | 51.13233 | 1.96987 | 23755 ft | 445 kts | 97° |
| 2026-04-18 11:43 | 51.12973 | 2.01914 | 24100 ft | 448 kts | 97° |
| 2026-04-18 11:44 | 51.12712 | 2.06874 | 24427 ft | 451 kts | 97° |
| 2026-04-18 11:44 | 51.12450 | 2.11852 | 24746 ft | 453 kts | 97° |
| 2026-04-18 11:44 | 51.12182 | 2.16865 | 25065 ft | 456 kts | 97° |
| 2026-04-18 11:44 | 51.11908 | 2.21904 | 25380 ft | 458 kts | 98° |
| 2026-04-18 11:45 | 51.11630 | 2.26967 | 25685 ft | 461 kts | 98° |
| 2026-04-18 11:45 | 51.11350 | 2.32062 | 25986 ft | 463 kts | 98° |
| 2026-04-18 11:45 | 51.11069 | 2.37180 | 26266 ft | 466 kts | 98° |
| 2026-04-18 11:45 | 51.10783 | 2.42330 | 26535 ft | 469 kts | 98° |
| 2026-04-18 11:46 | 51.10490 | 2.47509 | 26809 ft | 471 kts | 98° |
| 2026-04-18 11:46 | 51.10191 | 2.52722 | 27088 ft | 474 kts | 98° |
| 2026-04-18 11:46 | 51.09888 | 2.57959 | 27365 ft | 477 kts | 99° |
| 2026-04-18 11:46 | 51.09560 | 2.63209 | 27643 ft | 478 kts | 102° |
| 2026-04-18 11:47 | 51.08892 | 2.68369 | 27915 ft | 475 kts | 111° |
| 2026-04-18 11:47 | 51.07972 | 2.73430 | 28197 ft | 477 kts | 111° |
| 2026-04-18 11:47 | 51.07051 | 2.78507 | 28474 ft | 479 kts | 111° |
| 2026-04-18 11:47 | 51.06128 | 2.83609 | 28768 ft | 481 kts | 111° |
| 2026-04-18 11:48 | 51.05205 | 2.88723 | 29107 ft | 482 kts | 111° |
| 2026-04-18 11:48 | 51.04278 | 2.93838 | 29463 ft | 482 kts | 112° |
| 2026-04-18 11:48 | 51.03344 | 2.98962 | 29833 ft | 482 kts | 112° |